Saltcoats, Canada
Current Conditions -  °F | °C
As of 11:00 AM on Friday 24 Oct 2014 (Local Time) from CYQV Reporting Station
Broken Clouds Broken Clouds  
Wind Chill: 54°   Ceiling: 6500
Heat Index: 54°   Visibility: 9mi
Dew Point: 36°   Wind: 26mph
Humidity: 51%   Direction: 300°WNW
Pressure: 29.66"   Gusts: 38mph
Location:  51.04°N, 102.16°W
Report Text: CYQV 241700Z AUTO 30023G33KT 9SM BKN065 BKN081 12/02 A2966 RMK PRESRR SLP055 DENSITY ALT 1900FT
Loading
Personal Weather Stations






























Interactive Weather Map
Tropical Storm Tracking
New forecast layout! Learn more

10-Day Weather Forecast

Advertisements
Track Severe Weather on mobile